Terminal Aerodrome Forecast
Issued by NWS

Home | Current Version | Previous Version | Text Only | Print | Product List | Glossary On
Versions: 1 2 3 4 5 6 7 8 9 10 11 12 13 14 15 16 17
000
FTUS43 KGRR 221520 AAB
TAFMKG
TAF AMD
KMKG 221520Z 2215/2312 23016G26KT P6SM SKC
     FM222200 21009KT P6SM BKN100
     FM230300 20008KT P6SM VCSH OVC040
     FM230500 19010KT 6SM -SHRA OVC025
     FM230900 20006KT 4SM -SHRA BR OVC007=

USA.gov is the U.S. government's official web portal to all federal, state and local government web resources and services.